sensor_id;sensor_type;location;lat;lon;timestamp;temperature;humidity
20045;DHT22;10183;47.808;9.476;2022-12-11T00:00:47;-2.00;99.90
20045;DHT22;10183;47.808;9.476;2022-12-11T00:03:13;-2.00;99.90
20045;DHT22;10183;47.808;9.476;2022-12-11T00:05:40;-1.90;99.90
20045;DHT22;10183;47.808;9.476;2022-12-11T00:08:07;-1.90;99.90
20045;DHT22;10183;47.808;9.476;2022-12-11T00:10:33;-2.00;99.90
20045;DHT22;10183;47.808;9.476;2022-12-11T00:13:00;-2.10;99.90
20045;DHT22;10183;47.808;9.476;2022-12-11T00:15:27;-2.20;99.90
20045;DHT22;10183;47.808;9.476;2022-12-11T00:17:54;-2.30;99.90
20045;DHT22;10183;47.808;9.476;2022-12-11T00:20:20;-2.30;99.90
20045;DHT22;10183;47.808;9.476;2022-12-11T00:22:46;-2.30;99.90
20045;DHT22;10183;47.808;9.476;2022-12-11T00:25:13;-2.30;99.90
20045;DHT22;10183;47.808;9.476;2022-12-11T00:27:39;-2.40;99.90
20045;DHT22;10183;47.808;9.476;2022-12-11T00:30:06;-2.40;99.90
20045;DHT22;10183;47.808;9.476;2022-12-11T00:32:32;-2.30;99.90
20045;DHT22;10183;47.808;9.476;2022-12-11T00:34:59;-2.30;99.90
20045;DHT22;10183;47.808;9.476;2022-12-11T00:37:25;-2.30;99.90
20045;DHT22;10183;47.808;9.476;2022-12-11T00:39:51;-2.30;99.90
20045;DHT22;10183;47.808;9.476;2022-12-11T00:42:18;-2.30;99.90
20045;DHT22;10183;47.808;9.476;2022-12-11T00:44:44;-2.30;99.90
20045;DHT22;10183;47.808;9.476;2022-12-11T00:47:10;-2.30;99.90
20045;DHT22;10183;47.808;9.476;2022-12-11T00:49:37;-2.30;99.90
20045;DHT22;10183;47.808;9.476;2022-12-11T00:52:03;-2.40;99.90
20045;DHT22;10183;47.808;9.476;2022-12-11T00:54:29;-2.30;99.90
20045;DHT22;10183;47.808;9.476;2022-12-11T00:56:56;-2.40;99.90
20045;DHT22;10183;47.808;9.476;2022-12-11T00:59:22;-2.30;99.90
20045;DHT22;10183;47.808;9.476;2022-12-11T01:01:48;-2.30;99.90
20045;DHT22;10183;47.808;9.476;2022-12-11T01:04:14;-2.30;99.90
20045;DHT22;10183;47.808;9.476;2022-12-11T01:06:40;-2.30;99.90
20045;DHT22;10183;47.808;9.476;2022-12-11T01:09:06;-2.30;99.90
20045;DHT22;10183;47.808;9.476;2022-12-11T01:11:51;-2.30;99.90
20045;DHT22;10183;47.808;9.476;2022-12-11T01:14:18;-2.30;99.90
20045;DHT22;10183;47.808;9.476;2022-12-11T01:16:44;-2.40;99.90
20045;DHT22;10183;47.808;9.476;2022-12-11T01:19:11;-2.40;99.90
20045;DHT22;10183;47.808;9.476;2022-12-11T01:21:37;-2.40;99.90
20045;DHT22;10183;47.808;9.476;2022-12-11T01:24:03;-2.40;99.90
20045;DHT22;10183;47.808;9.476;2022-12-11T01:26:30;-2.40;99.90
20045;DHT22;10183;47.808;9.476;2022-12-11T01:28:56;-2.50;99.90
20045;DHT22;10183;47.808;9.476;2022-12-11T01:31:22;-2.40;99.90
20045;DHT22;10183;47.808;9.476;2022-12-11T01:33:48;-2.30;99.90
20045;DHT22;10183;47.808;9.476;2022-12-11T01:36:17;-2.20;99.90
20045;DHT22;10183;47.808;9.476;2022-12-11T01:38:45;-2.20;99.90
20045;DHT22;10183;47.808;9.476;2022-12-11T01:41:12;-2.10;99.90
20045;DHT22;10183;47.808;9.476;2022-12-11T01:46:24;-2.00;99.90
20045;DHT22;10183;47.808;9.476;2022-12-11T01:48:50;-1.90;99.90
20045;DHT22;10183;47.808;9.476;2022-12-11T01:51:16;-1.90;99.90
20045;DHT22;10183;47.808;9.476;2022-12-11T01:53:47;-1.80;99.90
20045;DHT22;10183;47.808;9.476;2022-12-11T01:56:15;-1.80;99.90
20045;DHT22;10183;47.808;9.476;2022-12-11T01:58:46;-1.90;99.90
20045;DHT22;10183;47.808;9.476;2022-12-11T02:01:20;-2.00;99.90
20045;DHT22;10183;47.808;9.476;2022-12-11T02:03:47;-2.10;99.90
20045;DHT22;10183;47.808;9.476;2022-12-11T02:06:38;-2.20;99.90
20045;DHT22;10183;47.808;9.476;2022-12-11T02:09:08;-2.20;99.90
20045;DHT22;10183;47.808;9.476;2022-12-11T02:14:34;-2.40;99.90
20045;DHT22;10183;47.808;9.476;2022-12-11T02:17:09;-2.60;99.90
20045;DHT22;10183;47.808;9.476;2022-12-11T02:22:58;-2.80;99.90
20045;DHT22;10183;47.808;9.476;2022-12-11T02:30:54;-3.20;99.90
20045;DHT22;10183;47.808;9.476;2022-12-11T02:33:30;-3.30;99.90
20045;DHT22;10183;47.808;9.476;2022-12-11T02:35:59;-3.40;99.90
20045;DHT22;10183;47.808;9.476;2022-12-11T02:38:30;-3.50;99.90
20045;DHT22;10183;47.808;9.476;2022-12-11T02:40:57;-3.70;99.90
20045;DHT22;10183;47.808;9.476;2022-12-11T02:43:26;-3.80;99.90
20045;DHT22;10183;47.808;9.476;2022-12-11T02:45:53;-3.80;99.90
20045;DHT22;10183;47.808;9.476;2022-12-11T02:48:21;-3.90;99.90
20045;DHT22;10183;47.808;9.476;2022-12-11T02:50:52;-4.00;99.90
20045;DHT22;10183;47.808;9.476;2022-12-11T02:53:22;-4.20;99.90
20045;DHT22;10183;47.808;9.476;2022-12-11T02:55:55;-4.20;99.90
20045;DHT22;10183;47.808;9.476;2022-12-11T02:58:28;-4.40;99.90
20045;DHT22;10183;47.808;9.476;2022-12-11T03:00:56;-4.60;99.90
20045;DHT22;10183;47.808;9.476;2022-12-11T03:03:22;-4.70;99.90
20045;DHT22;10183;47.808;9.476;2022-12-11T03:05:48;-4.80;99.90
20045;DHT22;10183;47.808;9.476;2022-12-11T03:08:15;-4.80;99.90
20045;DHT22;10183;47.808;9.476;2022-12-11T03:10:43;-4.90;99.90
20045;DHT22;10183;47.808;9.476;2022-12-11T03:13:12;-4.90;99.90
20045;DHT22;10183;47.808;9.476;2022-12-11T03:20:51;-5.00;99.90
20045;DHT22;10183;47.808;9.476;2022-12-11T03:25:56;-4.90;99.90
20045;DHT22;10183;47.808;9.476;2022-12-11T03:28:29;-5.00;99.90
20045;DHT22;10183;47.808;9.476;2022-12-11T03:30:57;-4.90;99.90
20045;DHT22;10183;47.808;9.476;2022-12-11T03:33:32;-5.00;99.90
20045;DHT22;10183;47.808;9.476;2022-12-11T03:36:03;-4.90;99.90
20045;DHT22;10183;47.808;9.476;2022-12-11T03:38:36;-5.00;99.90
20045;DHT22;10183;47.808;9.476;2022-12-11T03:41:05;-5.00;99.90
20045;DHT22;10183;47.808;9.476;2022-12-11T03:43:33;-5.00;99.90
20045;DHT22;10183;47.808;9.476;2022-12-11T03:46:00;-5.00;99.90
20045;DHT22;10183;47.808;9.476;2022-12-11T03:48:31;-5.00;99.90
20045;DHT22;10183;47.808;9.476;2022-12-11T03:51:00;-5.00;99.90
20045;DHT22;10183;47.808;9.476;2022-12-11T03:53:28;-5.00;99.90
20045;DHT22;10183;47.808;9.476;2022-12-11T03:55:56;-5.00;99.90
20045;DHT22;10183;47.808;9.476;2022-12-11T03:58:23;-5.00;99.90
20045;DHT22;10183;47.808;9.476;2022-12-11T04:00:50;-5.10;99.90
20045;DHT22;10183;47.808;9.476;2022-12-11T04:03:16;-5.10;99.90
20045;DHT22;10183;47.808;9.476;2022-12-11T04:05:45;-5.10;99.90
20045;DHT22;10183;47.808;9.476;2022-12-11T04:08:13;-5.20;99.90
20045;DHT22;10183;47.808;9.476;2022-12-11T04:10:39;-5.30;99.90
20045;DHT22;10183;47.808;9.476;2022-12-11T04:13:07;-5.30;99.90
20045;DHT22;10183;47.808;9.476;2022-12-11T04:15:34;-5.30;99.90
20045;DHT22;10183;47.808;9.476;2022-12-11T04:18:00;-5.30;99.90
20045;DHT22;10183;47.808;9.476;2022-12-11T04:20:46;-5.30;99.90
20045;DHT22;10183;47.808;9.476;2022-12-11T04:23:30;-5.20;99.90
20045;DHT22;10183;47.808;9.476;2022-12-11T04:26:17;-5.10;99.90
20045;DHT22;10183;47.808;9.476;2022-12-11T04:28:45;-5.10;99.90
20045;DHT22;10183;47.808;9.476;2022-12-11T04:31:17;-5.30;99.90
20045;DHT22;10183;47.808;9.476;2022-12-11T04:33:43;-5.30;99.90
20045;DHT22;10183;47.808;9.476;2022-12-11T04:36:10;-5.40;99.90
20045;DHT22;10183;47.808;9.476;2022-12-11T04:38:37;-5.40;99.90
20045;DHT22;10183;47.808;9.476;2022-12-11T04:41:09;-5.40;99.90
20045;DHT22;10183;47.808;9.476;2022-12-11T04:43:35;-5.50;99.90
20045;DHT22;10183;47.808;9.476;2022-12-11T04:46:17;-5.60;99.90
20045;DHT22;10183;47.808;9.476;2022-12-11T04:48:44;-5.60;99.90
20045;DHT22;10183;47.808;9.476;2022-12-11T04:51:11;-5.60;99.90
20045;DHT22;10183;47.808;9.476;2022-12-11T04:53:37;-5.60;99.90
20045;DHT22;10183;47.808;9.476;2022-12-11T04:56:05;-5.70;99.90
20045;DHT22;10183;47.808;9.476;2022-12-11T04:58:31;-5.90;99.90
20045;DHT22;10183;47.808;9.476;2022-12-11T05:00:57;-6.00;99.90
20045;DHT22;10183;47.808;9.476;2022-12-11T05:03:23;-6.20;99.90
20045;DHT22;10183;47.808;9.476;2022-12-11T05:05:51;-6.30;99.90
20045;DHT22;10183;47.808;9.476;2022-12-11T05:08:19;-6.60;99.90
20045;DHT22;10183;47.808;9.476;2022-12-11T05:10:57;-6.80;99.90
20045;DHT22;10183;47.808;9.476;2022-12-11T05:13:23;-7.00;99.90
20045;DHT22;10183;47.808;9.476;2022-12-11T05:15:50;-7.10;99.90
20045;DHT22;10183;47.808;9.476;2022-12-11T05:18:16;-7.10;99.90
20045;DHT22;10183;47.808;9.476;2022-12-11T05:20:42;-7.30;99.90
20045;DHT22;10183;47.808;9.476;2022-12-11T05:23:08;-7.40;99.90
20045;DHT22;10183;47.808;9.476;2022-12-11T05:25:34;-7.50;99.90
20045;DHT22;10183;47.808;9.476;2022-12-11T05:28:01;-7.50;99.90
20045;DHT22;10183;47.808;9.476;2022-12-11T05:30:27;-7.60;99.90
20045;DHT22;10183;47.808;9.476;2022-12-11T05:32:53;-7.60;99.90
20045;DHT22;10183;47.808;9.476;2022-12-11T05:35:19;-7.60;99.90
20045;DHT22;10183;47.808;9.476;2022-12-11T05:37:45;-7.70;99.90
20045;DHT22;10183;47.808;9.476;2022-12-11T05:40:11;-7.80;99.90
20045;DHT22;10183;47.808;9.476;2022-12-11T05:42:38;-8.00;99.90
20045;DHT22;10183;47.808;9.476;2022-12-11T05:45:04;-8.10;99.90
20045;DHT22;10183;47.808;9.476;2022-12-11T05:47:30;-8.10;99.90
20045;DHT22;10183;47.808;9.476;2022-12-11T05:49:56;-8.10;99.90
20045;DHT22;10183;47.808;9.476;2022-12-11T05:52:23;-8.10;99.90
20045;DHT22;10183;47.808;9.476;2022-12-11T05:54:49;-7.90;99.90
20045;DHT22;10183;47.808;9.476;2022-12-11T05:57:15;-7.70;99.90
20045;DHT22;10183;47.808;9.476;2022-12-11T05:59:41;-7.40;99.90
20045;DHT22;10183;47.808;9.476;2022-12-11T06:02:08;-7.30;99.90
20045;DHT22;10183;47.808;9.476;2022-12-11T06:04:34;-7.30;99.90
20045;DHT22;10183;47.808;9.476;2022-12-11T06:07:00;-7.60;99.90
20045;DHT22;10183;47.808;9.476;2022-12-11T06:09:26;-7.80;99.90
20045;DHT22;10183;47.808;9.476;2022-12-11T06:11:52;-7.90;99.90
20045;DHT22;10183;47.808;9.476;2022-12-11T06:14:18;-8.10;99.90
20045;DHT22;10183;47.808;9.476;2022-12-11T06:16:44;-8.20;99.90
20045;DHT22;10183;47.808;9.476;2022-12-11T06:19:14;-8.20;99.90
20045;DHT22;10183;47.808;9.476;2022-12-11T06:21:44;-8.30;99.90
20045;DHT22;10183;47.808;9.476;2022-12-11T06:24:10;-8.30;99.90
20045;DHT22;10183;47.808;9.476;2022-12-11T06:26:37;-8.20;99.90
20045;DHT22;10183;47.808;9.476;2022-12-11T06:29:03;-8.10;99.90
20045;DHT22;10183;47.808;9.476;2022-12-11T06:31:29;-8.00;99.90
20045;DHT22;10183;47.808;9.476;2022-12-11T06:33:55;-8.10;99.90
20045;DHT22;10183;47.808;9.476;2022-12-11T06:36:24;-8.20;99.90
20045;DHT22;10183;47.808;9.476;2022-12-11T06:38:50;-8.30;99.90
20045;DHT22;10183;47.808;9.476;2022-12-11T06:41:16;-8.50;99.90
20045;DHT22;10183;47.808;9.476;2022-12-11T06:43:43;-8.40;99.90
20045;DHT22;10183;47.808;9.476;2022-12-11T06:46:15;-8.50;99.90
20045;DHT22;10183;47.808;9.476;2022-12-11T06:48:42;-8.50;99.90
20045;DHT22;10183;47.808;9.476;2022-12-11T06:51:14;-8.50;99.90
20045;DHT22;10183;47.808;9.476;2022-12-11T06:53:41;-8.60;99.90
20045;DHT22;10183;47.808;9.476;2022-12-11T06:56:10;-8.60;99.90
20045;DHT22;10183;47.808;9.476;2022-12-11T06:58:37;-8.60;99.90
20045;DHT22;10183;47.808;9.476;2022-12-11T07:03:43;-8.60;99.90
20045;DHT22;10183;47.808;9.476;2022-12-11T07:06:09;-8.60;99.90
20045;DHT22;10183;47.808;9.476;2022-12-11T07:08:36;-8.50;99.90
20045;DHT22;10183;47.808;9.476;2022-12-11T07:11:07;-8.40;99.90
20045;DHT22;10183;47.808;9.476;2022-12-11T07:13:33;-8.20;99.90
20045;DHT22;10183;47.808;9.476;2022-12-11T07:16:01;-8.10;99.90
20045;DHT22;10183;47.808;9.476;2022-12-11T07:18:30;-8.10;99.90
20045;DHT22;10183;47.808;9.476;2022-12-11T07:20:58;-8.20;99.90
20045;DHT22;10183;47.808;9.476;2022-12-11T07:23:27;-8.20;99.90
20045;DHT22;10183;47.808;9.476;2022-12-11T07:25:54;-8.20;99.90
20045;DHT22;10183;47.808;9.476;2022-12-11T07:28:21;-8.30;99.90
20045;DHT22;10183;47.808;9.476;2022-12-11T07:30:48;-8.40;99.90
20045;DHT22;10183;47.808;9.476;2022-12-11T07:33:14;-8.30;99.90
20045;DHT22;10183;47.808;9.476;2022-12-11T07:35:40;-8.10;99.90
20045;DHT22;10183;47.808;9.476;2022-12-11T07:38:07;-8.00;99.90
20045;DHT22;10183;47.808;9.476;2022-12-11T07:40:33;-8.00;99.90
20045;DHT22;10183;47.808;9.476;2022-12-11T07:42:59;-8.10;99.90
20045;DHT22;10183;47.808;9.476;2022-12-11T07:45:25;-8.10;99.90
20045;DHT22;10183;47.808;9.476;2022-12-11T07:47:51;-8.30;99.90
20045;DHT22;10183;47.808;9.476;2022-12-11T07:50:18;-8.40;99.90
20045;DHT22;10183;47.808;9.476;2022-12-11T07:52:45;-8.50;99.90
20045;DHT22;10183;47.808;9.476;2022-12-11T07:55:11;-8.60;99.90
20045;DHT22;10183;47.808;9.476;2022-12-11T07:57:37;-8.70;99.90
20045;DHT22;10183;47.808;9.476;2022-12-11T08:00:04;-8.80;99.90
20045;DHT22;10183;47.808;9.476;2022-12-11T08:02:30;-8.80;99.90
20045;DHT22;10183;47.808;9.476;2022-12-11T08:04:57;-8.60;99.90
20045;DHT22;10183;47.808;9.476;2022-12-11T08:07:23;-8.50;99.90
20045;DHT22;10183;47.808;9.476;2022-12-11T08:09:51;-8.50;99.90
20045;DHT22;10183;47.808;9.476;2022-12-11T08:12:17;-8.30;99.90
20045;DHT22;10183;47.808;9.476;2022-12-11T08:14:43;-8.30;99.90
20045;DHT22;10183;47.808;9.476;2022-12-11T08:17:09;-8.10;99.90
20045;DHT22;10183;47.808;9.476;2022-12-11T08:19:36;-7.90;99.90
20045;DHT22;10183;47.808;9.476;2022-12-11T08:22:03;-7.60;99.90
20045;DHT22;10183;47.808;9.476;2022-12-11T08:24:29;-7.40;99.90
20045;DHT22;10183;47.808;9.476;2022-12-11T08:26:55;-7.20;99.90
20045;DHT22;10183;47.808;9.476;2022-12-11T08:29:21;-7.00;99.90
20045;DHT22;10183;47.808;9.476;2022-12-11T08:31:47;-6.70;99.90
20045;DHT22;10183;47.808;9.476;2022-12-11T08:34:14;-6.60;99.90
20045;DHT22;10183;47.808;9.476;2022-12-11T08:36:40;-6.50;99.90
20045;DHT22;10183;47.808;9.476;2022-12-11T08:39:06;-6.30;99.90
20045;DHT22;10183;47.808;9.476;2022-12-11T08:41:32;-6.60;99.90
20045;DHT22;10183;47.808;9.476;2022-12-11T08:43:58;-7.20;99.90
20045;DHT22;10183;47.808;9.476;2022-12-11T08:46:29;-7.30;99.90
20045;DHT22;10183;47.808;9.476;2022-12-11T08:48:56;-7.40;99.90
20045;DHT22;10183;47.808;9.476;2022-12-11T08:51:25;-7.20;99.90
20045;DHT22;10183;47.808;9.476;2022-12-11T08:53:55;-6.90;99.90
20045;DHT22;10183;47.808;9.476;2022-12-11T08:56:22;-6.80;99.90
20045;DHT22;10183;47.808;9.476;2022-12-11T08:58:50;-6.50;99.90
20045;DHT22;10183;47.808;9.476;2022-12-11T09:01:24;-6.30;99.90
20045;DHT22;10183;47.808;9.476;2022-12-11T09:03:52;-6.10;99.90
20045;DHT22;10183;47.808;9.476;2022-12-11T09:06:20;-6.30;99.90
20045;DHT22;10183;47.808;9.476;2022-12-11T09:08:49;-6.30;99.90
20045;DHT22;10183;47.808;9.476;2022-12-11T09:11:27;-6.00;99.90
20045;DHT22;10183;47.808;9.476;2022-12-11T09:13:54;-5.70;99.90
20045;DHT22;10183;47.808;9.476;2022-12-11T09:16:23;-5.50;99.90
20045;DHT22;10183;47.808;9.476;2022-12-11T09:18:52;-5.20;99.90
20045;DHT22;10183;47.808;9.476;2022-12-11T09:21:20;-5.10;99.90
20045;DHT22;10183;47.808;9.476;2022-12-11T09:23:47;-5.00;99.90
20045;DHT22;10183;47.808;9.476;2022-12-11T09:26:18;-5.00;99.90
20045;DHT22;10183;47.808;9.476;2022-12-11T09:28:45;-4.70;99.90
20045;DHT22;10183;47.808;9.476;2022-12-11T09:31:14;-4.50;99.90
20045;DHT22;10183;47.808;9.476;2022-12-11T09:33:41;-4.20;99.90
20045;DHT22;10183;47.808;9.476;2022-12-11T09:36:08;-3.90;99.90
20045;DHT22;10183;47.808;9.476;2022-12-11T09:38:35;-3.60;99.90
20045;DHT22;10183;47.808;9.476;2022-12-11T09:41:10;-3.40;99.90
20045;DHT22;10183;47.808;9.476;2022-12-11T09:44:02;-3.30;99.90
20045;DHT22;10183;47.808;9.476;2022-12-11T09:46:33;-3.20;99.90
20045;DHT22;10183;47.808;9.476;2022-12-11T09:49:02;-3.40;99.90
20045;DHT22;10183;47.808;9.476;2022-12-11T09:51:49;-3.60;99.90
20045;DHT22;10183;47.808;9.476;2022-12-11T09:54:16;-3.40;99.90
20045;DHT22;10183;47.808;9.476;2022-12-11T09:56:53;-3.60;99.90
20045;DHT22;10183;47.808;9.476;2022-12-11T09:59:24;-3.60;99.90
20045;DHT22;10183;47.808;9.476;2022-12-11T10:07:55;-3.20;99.90
20045;DHT22;10183;47.808;9.476;2022-12-11T10:18:53;-0.30;99.90
20045;DHT22;10183;47.808;9.476;2022-12-11T10:21:19;-0.40;99.90
20045;DHT22;10183;47.808;9.476;2022-12-11T10:24:10;0.60;99.90
20045;DHT22;10183;47.808;9.476;2022-12-11T10:26:38;1.80;99.90
20045;DHT22;10183;47.808;9.476;2022-12-11T10:29:09;3.40;99.90
20045;DHT22;10183;47.808;9.476;2022-12-11T10:31:52;4.50;99.90
20045;DHT22;10183;47.808;9.476;2022-12-11T10:34:35;6.00;99.90
20045;DHT22;10183;47.808;9.476;2022-12-11T10:37:02;7.60;99.90
20045;DHT22;10183;47.808;9.476;2022-12-11T10:39:29;8.70;97.70
20045;DHT22;10183;47.808;9.476;2022-12-11T10:41:56;9.70;91.10
20045;DHT22;10183;47.808;9.476;2022-12-11T10:44:29;10.60;74.70
20045;DHT22;10183;47.808;9.476;2022-12-11T10:47:10;7.90;77.20
20045;DHT22;10183;47.808;9.476;2022-12-11T10:49:41;7.70;75.70
20045;DHT22;10183;47.808;9.476;2022-12-11T10:52:26;4.00;90.40
20045;DHT22;10183;47.808;9.476;2022-12-11T10:55:01;4.20;99.90
20045;DHT22;10183;47.808;9.476;2022-12-11T10:57:31;7.30;99.90
20045;DHT22;10183;47.808;9.476;2022-12-11T10:59:59;7.30;93.00
20045;DHT22;10183;47.808;9.476;2022-12-11T11:02:37;6.20;95.10
20045;DHT22;10183;47.808;9.476;2022-12-11T11:05:24;3.40;99.90
20045;DHT22;10183;47.808;9.476;2022-12-11T11:08:23;2.60;99.90
20045;DHT22;10183;47.808;9.476;2022-12-11T11:10:53;1.10;99.90
20045;DHT22;10183;47.808;9.476;2022-12-11T11:13:28;0.70;99.90
20045;DHT22;10183;47.808;9.476;2022-12-11T11:16:05;0.60;99.90
20045;DHT22;10183;47.808;9.476;2022-12-11T11:18:33;0.50;99.90
20045;DHT22;10183;47.808;9.476;2022-12-11T11:21:00;0.10;99.90
20045;DHT22;10183;47.808;9.476;2022-12-11T11:23:28;1.90;99.90
20045;DHT22;10183;47.808;9.476;2022-12-11T11:25:56;3.60;99.90
20045;DHT22;10183;47.808;9.476;2022-12-11T11:28:26;1.70;99.90
20045;DHT22;10183;47.808;9.476;2022-12-11T11:30:59;2.70;99.90
20045;DHT22;10183;47.808;9.476;2022-12-11T11:33:27;2.90;99.90
20045;DHT22;10183;47.808;9.476;2022-12-11T11:36:04;2.60;99.90
20045;DHT22;10183;47.808;9.476;2022-12-11T11:38:45;1.00;99.90
20045;DHT22;10183;47.808;9.476;2022-12-11T11:41:24;0.80;99.90
20045;DHT22;10183;47.808;9.476;2022-12-11T11:43:55;0.10;99.90
20045;DHT22;10183;47.808;9.476;2022-12-11T11:46:37;0.10;99.90
20045;DHT22;10183;47.808;9.476;2022-12-11T11:49:27;0.60;99.90
20045;DHT22;10183;47.808;9.476;2022-12-11T11:55:04;3.90;99.90
20045;DHT22;10183;47.808;9.476;2022-12-11T11:57:41;5.00;99.90
20045;DHT22;10183;47.808;9.476;2022-12-11T12:02:44;6.10;84.00
20045;DHT22;10183;47.808;9.476;2022-12-11T12:05:13;7.00;97.60
20045;DHT22;10183;47.808;9.476;2022-12-11T12:08:22;8.00;90.50
20045;DHT22;10183;47.808;9.476;2022-12-11T12:14:34;9.00;75.60
20045;DHT22;10183;47.808;9.476;2022-12-11T12:17:30;6.80;75.20
20045;DHT22;10183;47.808;9.476;2022-12-11T12:22:42;6.00;98.50
20045;DHT22;10183;47.808;9.476;2022-12-11T12:30:50;8.70;89.50
20045;DHT22;10183;47.808;9.476;2022-12-11T12:33:34;10.50;74.70
20045;DHT22;10183;47.808;9.476;2022-12-11T12:39:01;13.10;51.90
20045;DHT22;10183;47.808;9.476;2022-12-11T12:49:47;12.00;46.60
20045;DHT22;10183;47.808;9.476;2022-12-11T12:52:33;11.20;46.90
20045;DHT22;10183;47.808;9.476;2022-12-11T12:57:43;11.10;50.50
20045;DHT22;10183;47.808;9.476;2022-12-11T13:00:11;11.40;50.90
20045;DHT22;10183;47.808;9.476;2022-12-11T13:02:49;11.80;50.40
20045;DHT22;10183;47.808;9.476;2022-12-11T13:05:27;13.00;48.60
20045;DHT22;10183;47.808;9.476;2022-12-11T13:08:00;13.60;46.00
20045;DHT22;10183;47.808;9.476;2022-12-11T13:10:33;13.90;45.20
20045;DHT22;10183;47.808;9.476;2022-12-11T13:13:01;14.70;43.50
20045;DHT22;10183;47.808;9.476;2022-12-11T13:15:37;16.00;40.30
20045;DHT22;10183;47.808;9.476;2022-12-11T13:18:37;16.20;38.40
20045;DHT22;10183;47.808;9.476;2022-12-11T13:23:53;16.60;35.20
20045;DHT22;10183;47.808;9.476;2022-12-11T13:26:31;16.90;33.90
20045;DHT22;10183;47.808;9.476;2022-12-11T13:28:58;17.40;32.80
20045;DHT22;10183;47.808;9.476;2022-12-11T13:33:56;19.40;29.30
20045;DHT22;10183;47.808;9.476;2022-12-11T13:36:29;20.90;27.20
20045;DHT22;10183;47.808;9.476;2022-12-11T13:39:13;21.90;25.00
20045;DHT22;10183;47.808;9.476;2022-12-11T13:41:46;22.00;23.70
20045;DHT22;10183;47.808;9.476;2022-12-11T13:44:28;21.70;23.10
20045;DHT22;10183;47.808;9.476;2022-12-11T13:47:00;20.70;22.80
20045;DHT22;10183;47.808;9.476;2022-12-11T13:49:31;19.80;23.80
20045;DHT22;10183;47.808;9.476;2022-12-11T13:52:00;20.10;23.60
20045;DHT22;10183;47.808;9.476;2022-12-11T13:54:30;20.20;23.40
20045;DHT22;10183;47.808;9.476;2022-12-11T13:57:01;19.80;22.90
20045;DHT22;10183;47.808;9.476;2022-12-11T13:59:36;18.80;24.30
20045;DHT22;10183;47.808;9.476;2022-12-11T14:02:23;18.10;24.80
20045;DHT22;10183;47.808;9.476;2022-12-11T14:04:54;17.60;25.00
20045;DHT22;10183;47.808;9.476;2022-12-11T14:07:26;17.70;24.40
20045;DHT22;10183;47.808;9.476;2022-12-11T14:10:06;17.40;23.90
20045;DHT22;10183;47.808;9.476;2022-12-11T14:12:35;15.30;24.90
20045;DHT22;10183;47.808;9.476;2022-12-11T14:15:03;14.40;26.20
20045;DHT22;10183;47.808;9.476;2022-12-11T14:17:32;12.80;29.20
20045;DHT22;10183;47.808;9.476;2022-12-11T14:20:00;11.00;31.20
20045;DHT22;10183;47.808;9.476;2022-12-11T14:22:28;7.70;39.10
20045;DHT22;10183;47.808;9.476;2022-12-11T14:24:57;8.20;40.90
20045;DHT22;10183;47.808;9.476;2022-12-11T14:27:25;8.90;43.80
20045;DHT22;10183;47.808;9.476;2022-12-11T14:29:52;8.90;43.30
20045;DHT22;10183;47.808;9.476;2022-12-11T14:32:27;9.50;45.40
20045;DHT22;10183;47.808;9.476;2022-12-11T14:34:56;10.30;43.00
20045;DHT22;10183;47.808;9.476;2022-12-11T14:37:23;10.50;41.60
20045;DHT22;10183;47.808;9.476;2022-12-11T14:40:15;9.70;43.70
20045;DHT22;10183;47.808;9.476;2022-12-11T14:42:53;8.70;45.10
20045;DHT22;10183;47.808;9.476;2022-12-11T14:45:38;5.00;49.40
20045;DHT22;10183;47.808;9.476;2022-12-11T14:48:15;5.30;60.40
20045;DHT22;10183;47.808;9.476;2022-12-11T14:50:46;4.60;76.90
20045;DHT22;10183;47.808;9.476;2022-12-11T14:55:46;3.40;99.90
20045;DHT22;10183;47.808;9.476;2022-12-11T15:00:42;1.50;99.90
20045;DHT22;10183;47.808;9.476;2022-12-11T15:05:49;1.00;99.90
20045;DHT22;10183;47.808;9.476;2022-12-11T15:08:31;0.80;99.90
20045;DHT22;10183;47.808;9.476;2022-12-11T15:11:12;0.30;99.90
20045;DHT22;10183;47.808;9.476;2022-12-11T15:13:52;0.00;99.90
20045;DHT22;10183;47.808;9.476;2022-12-11T15:16:20;-0.90;99.90
20045;DHT22;10183;47.808;9.476;2022-12-11T15:18:49;-1.30;99.90
20045;DHT22;10183;47.808;9.476;2022-12-11T15:21:17;-1.90;99.90
20045;DHT22;10183;47.808;9.476;2022-12-11T15:23:57;-2.50;99.90
20045;DHT22;10183;47.808;9.476;2022-12-11T15:26:39;-2.70;99.90
20045;DHT22;10183;47.808;9.476;2022-12-11T15:29:34;-2.70;99.90
20045;DHT22;10183;47.808;9.476;2022-12-11T15:32:21;-2.70;99.90
20045;DHT22;10183;47.808;9.476;2022-12-11T15:37:33;-2.80;99.90
20045;DHT22;10183;47.808;9.476;2022-12-11T15:40:05;-3.10;99.90
20045;DHT22;10183;47.808;9.476;2022-12-11T15:42:37;-3.40;99.90
20045;DHT22;10183;47.808;9.476;2022-12-11T15:45:07;-3.50;99.90
20045;DHT22;10183;47.808;9.476;2022-12-11T15:47:34;-3.60;99.90
20045;DHT22;10183;47.808;9.476;2022-12-11T15:50:22;-3.70;99.90
20045;DHT22;10183;47.808;9.476;2022-12-11T15:52:49;-3.70;99.90
20045;DHT22;10183;47.808;9.476;2022-12-11T15:55:17;-3.70;99.90
20045;DHT22;10183;47.808;9.476;2022-12-11T15:57:50;-3.70;99.90
20045;DHT22;10183;47.808;9.476;2022-12-11T16:00:19;-3.70;99.90
20045;DHT22;10183;47.808;9.476;2022-12-11T16:02:46;-3.80;99.90
20045;DHT22;10183;47.808;9.476;2022-12-11T16:05:13;-3.80;99.90
20045;DHT22;10183;47.808;9.476;2022-12-11T16:07:39;-3.80;99.90
20045;DHT22;10183;47.808;9.476;2022-12-11T16:10:09;-3.90;99.90
20045;DHT22;10183;47.808;9.476;2022-12-11T16:12:38;-4.00;99.90
20045;DHT22;10183;47.808;9.476;2022-12-11T16:15:05;-4.00;99.90
20045;DHT22;10183;47.808;9.476;2022-12-11T16:17:32;-4.00;99.90
20045;DHT22;10183;47.808;9.476;2022-12-11T16:19:58;-4.10;99.90
20045;DHT22;10183;47.808;9.476;2022-12-11T16:22:24;-4.20;99.90
20045;DHT22;10183;47.808;9.476;2022-12-11T16:24:54;-4.30;99.90
20045;DHT22;10183;47.808;9.476;2022-12-11T16:27:21;-4.40;99.90
20045;DHT22;10183;47.808;9.476;2022-12-11T16:29:47;-4.60;99.90
20045;DHT22;10183;47.808;9.476;2022-12-11T16:32:14;-4.70;99.90
20045;DHT22;10183;47.808;9.476;2022-12-11T16:34:40;-4.80;99.90
20045;DHT22;10183;47.808;9.476;2022-12-11T16:37:07;-5.00;99.90
20045;DHT22;10183;47.808;9.476;2022-12-11T16:39:36;-5.30;99.90
20045;DHT22;10183;47.808;9.476;2022-12-11T16:42:03;-5.40;99.90
20045;DHT22;10183;47.808;9.476;2022-12-11T16:44:29;-5.60;99.90
20045;DHT22;10183;47.808;9.476;2022-12-11T16:46:57;-5.60;99.90
20045;DHT22;10183;47.808;9.476;2022-12-11T16:49:23;-5.50;99.90
20045;DHT22;10183;47.808;9.476;2022-12-11T16:51:49;-5.50;99.90
20045;DHT22;10183;47.808;9.476;2022-12-11T16:54:16;-5.50;99.90
20045;DHT22;10183;47.808;9.476;2022-12-11T16:56:43;-5.60;99.90
20045;DHT22;10183;47.808;9.476;2022-12-11T16:59:09;-5.50;99.90
20045;DHT22;10183;47.808;9.476;2022-12-11T17:01:37;-5.60;99.90
20045;DHT22;10183;47.808;9.476;2022-12-11T17:04:04;-5.60;99.90
20045;DHT22;10183;47.808;9.476;2022-12-11T17:06:31;-5.60;99.90
20045;DHT22;10183;47.808;9.476;2022-12-11T17:08:59;-5.70;99.90
20045;DHT22;10183;47.808;9.476;2022-12-11T17:11:25;-5.60;99.90
20045;DHT22;10183;47.808;9.476;2022-12-11T17:13:54;-5.70;99.90
20045;DHT22;10183;47.808;9.476;2022-12-11T17:16:20;-5.90;99.90